Time;durP1;ratioP1;P1;durP2;ratioP2;P2;SDS_P1;SDS_P2;PMS_P1;PMS_P2;Temp;Humidity;BMP_temperature;BMP_pressure;BME280_temperature;BME280_humidity;BME280_pressure;Samples;Min_cycle;Max_cycle;Signal;HPM_P1;HPM_P2
2024/03/15 00:02:08;;;;;;;3.60;1.70;;;;;;;-145.69;70.75;52377.06;5111971;28;20280;-80
2024/03/15 00:04:38;;;;;;;3.20;1.53;;;;;;;-145.69;71.18;52381.00;5112061;28;20703;-79
2024/03/15 00:07:05;;;;;;;5.97;1.90;;;;;;;-145.69;70.59;52339.44;5112108;28;20240;-82
2024/03/15 00:09:32;;;;;;;3.73;1.70;;;;;;;-145.69;69.86;52353.28;5112336;28;20197;-81
2024/03/15 00:12:00;;;;;;;6.90;2.07;;;;;;;-145.69;69.89;52361.22;5112092;28;20288;-80
2024/03/15 00:14:27;;;;;;;4.13;1.53;;;;;;;-145.69;69.91;52357.25;5111816;28;20209;-81
2024/03/15 00:16:54;;;;;;;4.80;1.97;;;;;;;-145.69;69.97;52375.06;5130826;27;20235;-80
2024/03/15 00:19:21;;;;;;;3.50;1.87;;;;;;;-145.69;70.27;52341.41;5134735;27;20200;-80
2024/03/15 00:21:48;;;;;;;4.97;1.60;;;;;;;-145.69;69.41;52381.00;5112063;28;20232;-80
2024/03/15 00:24:14;;;;;;;2.97;1.60;;;;;;;-145.69;69.44;52381.00;5093740;28;20221;-80
2024/03/15 00:26:41;;;;;;;3.27;1.50;;;;;;;-145.69;69.34;52379.03;5095049;28;20227;-80
2024/03/15 00:29:08;;;;;;;2.37;1.53;;;;;;;-145.69;69.71;52377.06;5126170;27;20236;-81
2024/03/15 00:31:35;;;;;;;4.27;1.50;;;;;;;-145.69;69.72;52357.25;5136222;27;20200;-81
2024/03/15 00:34:03;;;;;;;2.93;1.80;;;;;;;-145.69;69.91;52396.84;5136018;27;20657;-81
2024/03/15 00:36:32;;;;;;;2.90;1.50;;;;;;;-145.69;69.95;52392.91;5135868;27;20227;-81
2024/03/15 00:38:58;;;;;;;3.83;1.50;;;;;;;-145.69;69.47;52337.44;5094878;28;20226;-81
2024/03/15 00:41:25;;;;;;;2.43;1.60;;;;;;;-145.69;69.47;52353.28;5111692;28;20196;-81
2024/03/15 00:43:53;;;;;;;1.57;1.30;;;;;;;-145.69;69.66;52353.28;5115127;27;20220;-81
2024/03/15 00:46:19;;;;;;;2.23;1.60;;;;;;;-145.69;69.36;52396.84;5115140;28;20208;-80
2024/03/15 00:48:46;;;;;;;3.27;1.77;;;;;;;-145.69;69.02;52361.22;5115473;28;20193;-79
2024/03/15 00:51:13;;;;;;;4.97;1.77;;;;;;;-145.69;68.62;52375.06;5115134;28;20220;-80
2024/03/15 00:53:41;;;;;;;4.23;1.80;;;;;;;-145.69;68.64;52333.47;5115316;28;20249;-81
2024/03/15 00:56:07;;;;;;;6.67;2.10;;;;;;;-145.69;68.32;52349.31;5114722;27;20248;-80
2024/03/15 00:58:34;;;;;;;5.13;1.80;;;;;;;-145.69;67.48;52365.16;5091002;28;20198;-80
2024/03/15 01:01:04;;;;;;;2.90;1.63;;;;;;;-145.69;67.33;52388.94;5089766;28;20254;-81
2024/03/15 01:03:31;;;;;;;3.83;1.80;;;;;;;-145.69;67.38;52361.22;5103865;28;20277;-81
2024/03/15 01:05:58;;;;;;;1.40;1.30;;;;;;;-145.69;67.33;52373.09;5105152;28;20197;-81
2024/03/15 01:08:25;;;;;;;2.30;1.33;;;;;;;-145.69;68.02;52394.88;5089965;28;20723;-81
2024/03/15 01:10:52;;;;;;;2.87;1.30;;;;;;;-145.69;67.80;52384.97;5095365;28;20194;-81
2024/03/15 01:13:18;;;;;;;3.50;1.50;;;;;;;-145.69;67.82;52388.94;5111445;28;20189;-80
2024/03/15 01:15:45;;;;;;;2.00;1.40;;;;;;;-145.69;68.00;52377.06;5113432;28;20196;-81
2024/03/15 01:18:12;;;;;;;3.87;1.80;;;;;;;-145.69;67.04;52369.13;5110443;28;20229;-80
2024/03/15 01:20:39;;;;;;;2.50;1.20;;;;;;;-145.69;66.75;52353.28;5094718;28;20231;-80
2024/03/15 01:23:05;;;;;;;2.80;1.40;;;;;;;-145.69;66.70;52396.84;5094614;28;20198;-81
2024/03/15 01:25:35;;;;;;;2.20;1.43;;;;;;;-145.69;66.36;52337.44;5094329;28;20221;-81
2024/03/15 01:28:01;;;;;;;2.07;1.40;;;;;;;-145.69;66.55;52381.00;5094977;28;20251;-81
2024/03/15 01:30:30;;;;;;;2.83;1.57;;;;;;;-145.69;66.02;52329.53;5094555;28;20201;-81
2024/03/15 01:32:56;;;;;;;6.00;1.60;;;;;;;-145.69;66.01;52406.75;5094831;28;20193;-81
2024/03/15 01:35:23;;;;;;;3.10;1.47;;;;;;;-145.69;66.43;52357.25;5098603;28;20194;-81
2024/03/15 01:37:50;;;;;;;1.93;1.37;;;;;;;-145.69;66.54;52359.22;5115019;28;20659;-81
2024/03/15 01:40:17;;;;;;;1.93;1.23;;;;;;;-145.69;66.55;52359.22;5119890;27;20204;-81
2024/03/15 01:42:43;;;;;;;3.73;1.50;;;;;;;-145.69;66.28;52388.94;5119639;27;20221;-81
2024/03/15 01:45:11;;;;;;;1.53;1.10;;;;;;;-145.69;66.34;52353.28;5097376;28;20225;-80
2024/03/15 01:47:38;;;;;;;2.57;1.47;;;;;;;-145.69;66.94;52373.09;5098211;28;20201;-79
2024/03/15 01:50:07;;;;;;;3.23;1.20;;;;;;;-145.69;66.43;52404.78;5097663;28;20236;-80
2024/03/15 01:52:35;;;;;;;2.30;1.30;;;;;;;-145.69;66.66;52325.56;5097869;28;20251;-80
2024/03/15 01:55:02;;;;;;;3.50;1.53;;;;;;;-145.69;65.85;52373.09;5098277;28;20197;-80
2024/03/15 01:57:28;;;;;;;5.10;1.50;;;;;;;-145.69;66.01;52353.28;5097720;28;20652;-80
2024/03/15 01:59:54;;;;;;;2.30;1.53;;;;;;;-145.69;66.06;52384.97;5107901;28;20201;-80
2024/03/15 02:02:25;;;;;;;2.20;1.60;;;;;;;-145.69;65.58;52383.00;5114493;28;20197;-80
2024/03/15 02:04:54;;;;;;;4.97;1.40;;;;;;;-145.69;65.98;52396.84;5115292;27;20279;-79
2024/03/15 02:07:22;;;;;;;3.33;1.40;;;;;;;-145.69;65.86;52371.13;5118474;27;20212;-79
2024/03/15 02:09:49;;;;;;;1.63;1.13;;;;;;;-145.69;66.18;52388.94;5117266;27;20643;-80
2024/03/15 02:12:15;;;;;;;2.37;1.40;;;;;;;-145.69;66.24;52361.22;5117706;27;20200;-80
2024/03/15 02:14:42;;;;;;;2.07;1.50;;;;;;;-145.69;66.73;52349.31;5116464;27;20659;-80
2024/03/15 02:17:07;;;;;;;2.20;1.50;;;;;;;-145.69;66.95;52369.13;5113964;28;20206;-82
2024/03/15 02:19:34;;;;;;;2.63;1.30;;;;;;;-145.69;66.18;52377.06;5096901;28;20213;-81
2024/03/15 02:22:01;;;;;;;2.30;1.43;;;;;;;-145.69;66.68;52377.06;5097259;28;20717;-81
2024/03/15 02:24:28;;;;;;;2.40;1.10;;;;;;;-145.69;65.96;52381.00;5097269;28;20312;-80
2024/03/15 02:26:57;;;;;;;3.07;1.40;;;;;;;-145.69;66.18;52402.78;5097236;28;20197;-80
2024/03/15 02:29:27;;;;;;;1.40;1.20;;;;;;;-145.69;65.56;52388.94;5114403;27;20196;-80
2024/03/15 02:31:54;;;;;;;3.30;1.27;;;;;;;-145.69;65.45;52373.09;5117903;27;20196;-80
2024/03/15 02:34:20;;;;;;;5.67;1.10;;;;;;;-145.69;65.11;52357.25;5113650;28;20548;-80
2024/03/15 02:36:47;;;;;;;4.93;1.57;;;;;;;-145.69;66.15;52390.91;5096812;28;20627;-79
2024/03/15 02:39:16;;;;;;;4.13;1.20;;;;;;;-145.69;65.78;52384.97;5097091;28;20288;-80
2024/03/15 02:41:42;;;;;;;4.73;1.33;;;;;;;-145.69;66.03;52388.94;5124416;27;20203;-79
2024/03/15 02:44:09;;;;;;;4.13;1.37;;;;;;;-145.69;66.11;52367.16;5137789;27;20212;-80
2024/03/15 02:46:36;;;;;;;4.50;1.50;;;;;;;-145.69;66.21;52371.13;5137324;27;20596;-80
2024/03/15 02:49:03;;;;;;;2.07;1.30;;;;;;;-145.69;65.27;52367.16;5137216;27;20199;-80
2024/03/15 02:51:30;;;;;;;1.90;1.30;;;;;;;-145.69;65.09;52379.03;5120119;27;20218;-80
2024/03/15 02:53:56;;;;;;;1.77;1.33;;;;;;;-145.69;65.33;52396.84;5096774;28;20732;-81
2024/03/15 02:56:26;;;;;;;2.63;1.30;;;;;;;-145.69;64.77;52388.94;5113450;28;20282;-81
2024/03/15 02:58:53;;;;;;;1.47;1.20;;;;;;;-145.69;64.41;52363.19;5113741;28;20555;-80
2024/03/15 03:01:19;;;;;;;1.47;1.33;;;;;;;-145.69;64.34;52365.16;5096472;28;20288;-80
2024/03/15 03:03:46;;;;;;;3.87;1.37;;;;;;;-145.69;64.86;52365.16;5096568;28;20292;-81
2024/03/15 03:06:13;;;;;;;3.50;1.30;;;;;;;-145.69;64.70;52365.16;5095827;28;20221;-80
2024/03/15 03:08:40;;;;;;;1.37;1.27;;;;;;;-145.69;64.28;52349.31;5132402;27;20193;-80
2024/03/15 03:11:07;;;;;;;2.57;1.33;;;;;;;-145.69;64.62;52388.94;5117499;27;20196;-80
2024/03/15 03:13:34;;;;;;;5.20;1.43;;;;;;;-145.69;64.19;52361.22;5116732;27;20223;-80
2024/03/15 03:16:01;;;;;;;1.67;1.20;;;;;;;-145.69;64.48;52377.06;5116976;27;20220;-80
2024/03/15 03:18:27;;;;;;;2.33;1.27;;;;;;;-145.69;64.44;52365.16;5116821;27;20201;-80
2024/03/15 03:20:55;;;;;;;1.90;1.20;;;;;;;-145.69;63.72;52353.28;5104576;28;20683;-80
2024/03/15 03:23:22;;;;;;;2.53;1.20;;;;;;;-145.69;63.74;52373.09;5096174;28;20197;-80
2024/03/15 03:25:49;;;;;;;2.00;1.27;;;;;;;-145.69;64.12;52359.22;5095703;28;20743;-80
2024/03/15 03:28:16;;;;;;;1.67;0.93;;;;;;;-145.69;64.06;52353.28;5099556;27;20551;-80
2024/03/15 03:30:43;;;;;;;2.30;1.40;;;;;;;-145.69;63.67;52365.16;5116153;27;20233;-80
2024/03/15 03:33:09;;;;;;;5.73;1.53;;;;;;;-145.69;64.36;52404.78;5116196;27;20695;-80
2024/03/15 03:35:36;;;;;;;2.50;1.20;;;;;;;-145.69;64.59;52381.00;5116350;27;20196;-80
2024/03/15 03:38:03;;;;;;;2.77;1.60;;;;;;;-145.69;64.69;52375.06;5116374;27;20236;-80
2024/03/15 03:40:30;;;;;;;3.70;1.47;;;;;;;-145.69;64.81;52388.94;5131733;27;20248;-80
2024/03/15 03:42:57;;;;;;;2.83;1.40;;;;;;;-145.69;64.29;52398.84;5136620;27;20651;-80
2024/03/15 03:45:26;;;;;;;2.60;1.13;;;;;;;-145.69;64.38;52367.16;5136565;27;20220;-80
2024/03/15 03:47:53;;;;;;;3.07;1.20;;;;;;;-145.69;64.66;52384.97;5126553;27;20201;-80
2024/03/15 03:50:20;;;;;;;3.58;1.25;;;;;;;-145.69;65.68;52357.25;5094969;28;20443;-81
2024/03/15 03:52:48;;;;;;;3.27;1.30;;;;;;;-145.69;65.99;52396.84;5112368;28;20208;-80
2024/03/15 03:55:14;;;;;;;3.83;1.53;;;;;;;-145.69;66.09;52369.13;5095600;28;20202;-80
2024/03/15 03:57:41;;;;;;;1.50;1.10;;;;;;;-145.69;65.96;52408.75;5095413;28;20205;-80
2024/03/15 04:00:14;;;;;;;7.23;1.43;;;;;;;-145.69;65.89;52367.16;5095295;28;20205;-80
2024/03/15 04:02:44;;;;;;;2.03;1.17;;;;;;;-145.69;65.89;52377.06;5096391;28;20293;-79
2024/03/15 04:05:12;;;;;;;5.93;1.73;;;;;;;-145.69;66.46;52408.75;5112075;28;20266;-80
2024/03/15 04:07:39;;;;;;;7.33;1.50;;;;;;;-145.69;65.91;52329.53;5120116;27;20284;-80
2024/03/15 04:10:06;;;;;;;2.10;1.30;;;;;;;-145.69;65.69;52392.91;5127926;27;20249;-80
2024/03/15 04:12:33;;;;;;;4.90;1.43;;;;;;;-145.69;66.21;52390.91;5136304;27;20280;-82
2024/03/15 04:15:00;;;;;;;2.07;1.47;;;;;;;-145.69;66.50;52369.13;5136281;27;20206;-80
2024/03/15 04:17:27;;;;;;;3.27;1.20;;;;;;;-145.69;66.06;52337.44;5136480;27;20202;-79
2024/03/15 04:19:54;;;;;;;1.40;1.27;;;;;;;-145.69;65.90;52365.16;5126053;27;20651;-80
2024/03/15 04:22:21;;;;;;;6.73;1.50;;;;;;;-145.69;66.35;52377.06;5095068;28;20212;-80
2024/03/15 04:24:49;;;;;;;10.03;1.70;;;;;;;-145.69;66.81;52384.97;5095112;28;20224;-79
2024/03/15 04:27:16;;;;;;;3.13;1.60;;;;;;;-145.69;66.33;52377.06;5095562;28;20204;-82
2024/03/15 04:29:43;;;;;;;1.30;1.20;;;;;;;-145.69;66.25;52381.00;5108475;28;20204;-81
2024/03/15 04:32:10;;;;;;;3.53;1.47;;;;;;;-145.69;66.40;52357.25;5115412;27;20193;-80
2024/03/15 04:34:37;;;;;;;4.83;1.80;;;;;;;-145.69;66.85;52365.16;5115583;27;20228;-80
2024/03/15 04:37:04;;;;;;;7.40;1.60;;;;;;;-145.69;66.78;52349.31;5115202;27;20719;-81
2024/03/15 04:39:31;;;;;;;4.20;1.50;;;;;;;-145.69;66.84;52363.19;5122221;27;20195;-80
2024/03/15 04:41:57;;;;;;;4.03;1.40;;;;;;;-145.69;67.19;52365.16;5117457;28;20202;-81
2024/03/15 04:44:24;;;;;;;5.33;1.50;;;;;;;-145.69;67.53;52359.22;5115016;28;20201;-81
2024/03/15 04:46:51;;;;;;;5.60;1.70;;;;;;;-145.69;67.23;52377.06;5115296;28;20239;-80
2024/03/15 04:49:18;;;;;;;2.57;1.37;;;;;;;-145.69;67.25;52327.53;5111574;28;20189;-80
2024/03/15 04:51:45;;;;;;;2.20;1.40;;;;;;;-145.69;66.66;52353.28;5094247;28;20270;-80
2024/03/15 04:54:12;;;;;;;2.77;1.40;;;;;;;-145.69;66.66;52353.28;5094814;28;20197;-81
2024/03/15 04:56:38;;;;;;;2.50;1.47;;;;;;;-145.69;67.17;52379.03;5094797;28;20201;-81
2024/03/15 04:59:06;;;;;;;2.70;1.40;;;;;;;-145.69;66.66;52373.09;5094722;28;20205;-81
2024/03/15 05:01:33;;;;;;;2.97;1.40;;;;;;;-145.69;66.75;52390.91;5094753;28;20594;-80
2024/03/15 05:03:59;;;;;;;1.60;1.07;;;;;;;-145.69;66.28;52363.19;5094749;28;20208;-81
2024/03/15 05:06:26;;;;;;;5.97;1.43;;;;;;;-145.69;66.25;52349.31;5102788;28;20220;-81
2024/03/15 05:08:52;;;;;;;2.70;1.30;;;;;;;-145.69;66.46;52369.13;5113481;27;20556;-81
2024/03/15 05:11:19;;;;;;;3.00;1.20;;;;;;;-145.69;65.93;52353.28;5137448;27;20196;-81
2024/03/15 05:13:46;;;;;;;2.13;1.38;;;;;;;-145.69;67.30;52369.13;5120524;27;20434;-80
2024/03/15 05:16:14;;;;;;;2.63;1.70;;;;;;;-145.69;66.71;52361.22;5115087;28;20197;-83
2024/03/15 05:18:41;;;;;;;3.13;1.33;;;;;;;-145.69;66.95;52396.84;5115067;27;20197;-81
2024/03/15 05:21:09;;;;;;;2.33;1.50;;;;;;;-145.69;66.23;52373.09;5118717;27;20671;-80
2024/03/15 05:23:36;;;;;;;2.57;1.40;;;;;;;-145.69;65.76;52369.13;5115184;28;20542;-79
2024/03/15 05:26:05;;;;;;;1.87;1.37;;;;;;;-145.69;66.33;52379.03;5112791;28;20232;-80
2024/03/15 05:28:32;;;;;;;2.40;1.50;;;;;;;-145.69;66.69;52351.31;5115427;28;20618;-79
2024/03/15 05:30:59;;;;;;;1.97;1.50;;;;;;;-145.69;66.36;52384.97;5115177;28;20201;-80
2024/03/15 05:33:25;;;;;;;2.73;1.70;;;;;;;-145.69;66.28;52337.44;5114791;28;20202;-80
2024/03/15 05:35:52;;;;;;;5.03;1.80;;;;;;;-145.69;66.09;52353.28;5115118;28;20193;-82
2024/03/15 05:38:19;;;;;;;2.70;1.50;;;;;;;-145.69;65.88;52369.13;5115058;28;20204;-79
2024/03/15 05:40:46;;;;;;;2.50;1.60;;;;;;;-145.69;65.48;52357.25;5118421;27;20196;-80
2024/03/15 05:43:14;;;;;;;5.70;1.70;;;;;;;-145.69;65.24;52365.16;5114901;28;20194;-79
2024/03/15 05:45:41;;;;;;;3.37;1.40;;;;;;;-145.69;64.94;52361.22;5114777;28;20231;-82
2024/03/15 05:48:08;;;;;;;1.93;1.30;;;;;;;-145.69;65.27;52357.25;5097782;28;20201;-82
2024/03/15 05:50:34;;;;;;;3.13;1.40;;;;;;;-145.69;66.38;52377.06;5114389;28;20252;-81
2024/03/15 05:53:01;;;;;;;11.27;2.57;;;;;;;-145.69;65.86;52357.25;5097855;28;20212;-82
2024/03/15 05:55:28;;;;;;;3.97;1.50;;;;;;;-145.69;66.31;52379.03;5097792;28;20280;-80
2024/03/15 05:57:54;;;;;;;5.80;1.73;;;;;;;-145.69;65.69;52381.00;5097768;28;20196;-82
2024/03/15 06:00:23;;;;;;;8.50;1.50;;;;;;;-145.69;65.52;52379.03;5097499;28;20656;-81
2024/03/15 06:02:50;;;;;;;3.20;1.40;;;;;;;-145.69;65.63;52329.53;5112947;27;20609;-81
2024/03/15 06:05:18;;;;;;;3.03;1.50;;;;;;;-145.69;64.91;52359.22;5118241;27;20220;-80
2024/03/15 06:07:45;;;;;;;6.50;1.47;;;;;;;-145.69;64.92;52337.44;5117829;27;20200;-81
2024/03/15 06:10:13;;;;;;;3.43;1.50;;;;;;;-145.69;65.26;52351.31;5117839;27;20205;-82
2024/03/15 06:12:40;;;;;;;4.30;1.70;;;;;;;-145.69;65.01;52384.97;5117529;27;20197;-81
2024/03/15 06:15:09;;;;;;;4.67;1.47;;;;;;;-145.69;65.15;52373.09;5117862;27;20201;-82
2024/03/15 06:17:36;;;;;;;2.93;1.40;;;;;;;-145.69;64.83;52371.13;5118106;27;20633;-80
2024/03/15 06:20:04;;;;;;;5.83;1.80;;;;;;;-145.69;65.69;52384.97;5117790;27;20249;-80
2024/03/15 06:22:31;;;;;;;2.87;1.40;;;;;;;-145.69;65.63;52377.06;5097117;28;20208;-80
2024/03/15 06:24:58;;;;;;;6.33;1.80;;;;;;;-145.69;65.26;52345.38;5096887;28;20208;-79
2024/03/15 06:27:25;;;;;;;2.40;1.50;;;;;;;-145.69;65.31;52392.91;5097282;28;20206;-80
2024/03/15 06:29:55;;;;;;;4.87;1.63;;;;;;;-145.69;65.30;52396.84;5097202;28;20659;-80
2024/03/15 06:32:26;;;;;;;4.77;1.67;;;;;;;-145.69;65.36;52404.78;5097765;27;20201;-80
2024/03/15 06:34:53;;;;;;;2.47;1.63;;;;;;;-145.69;65.59;52392.91;5097573;28;20243;-80
2024/03/15 06:37:22;;;;;;;2.47;1.60;;;;;;;-145.69;66.10;52365.16;5096952;28;20232;-80
2024/03/15 06:40:03;;;;;;;2.43;1.50;;;;;;;-145.69;66.06;52373.09;5101938;28;20741;-80
2024/03/15 06:42:59;;;;;;;4.83;1.93;;;;;;;-145.69;66.93;52363.19;5113971;28;20711;-80
2024/03/15 06:45:36;;;;;;;3.83;1.83;;;;;;;-145.69;66.50;52343.38;5101346;28;20228;-81
2024/03/15 06:48:03;;;;;;;5.57;1.90;;;;;;;-145.69;67.40;52384.97;5113739;27;20193;-80
2024/03/15 06:50:48;;;;;;;10.20;2.03;;;;;;;-145.69;66.90;52353.28;5113235;28;20236;-81
2024/03/15 06:53:16;;;;;;;3.17;1.60;;;;;;;-145.69;67.10;52365.16;5114002;28;20193;-80
2024/03/15 06:55:43;;;;;;;4.60;1.80;;;;;;;-145.69;66.83;52402.78;5113559;28;20207;-80
2024/03/15 06:58:10;;;;;;;3.27;1.80;;;;;;;-145.69;67.57;52396.84;5113269;28;20197;-80
2024/03/15 07:00:37;;;;;;;3.83;1.90;;;;;;;-145.69;67.34;52367.16;5113623;28;20198;-80
2024/03/15 07:03:03;;;;;;;8.50;1.93;;;;;;;-145.69;66.96;52353.28;5116355;27;20204;-80
2024/03/15 07:05:31;;;;;;;5.40;1.83;;;;;;;-145.69;67.16;52361.22;5112802;28;20217;-80
2024/03/15 07:07:57;;;;;;;5.77;2.47;;;;;;;-145.69;67.19;52357.25;5096641;28;20648;-80
2024/03/15 07:10:24;;;;;;;7.57;2.53;;;;;;;-145.69;66.73;52371.13;5096877;28;20198;-80
2024/03/15 07:12:51;;;;;;;7.53;2.37;;;;;;;-145.69;66.24;52349.31;5113087;28;20207;-80
2024/03/15 07:15:18;;;;;;;3.10;2.20;;;;;;;-145.69;66.80;52373.09;5110777;27;20276;-80
2024/03/15 07:17:45;;;;;;;7.53;2.47;;;;;;;-145.69;65.86;52357.25;5111797;27;20203;-79
2024/03/15 07:20:12;;;;;;;3.80;2.43;;;;;;;-145.69;65.84;52361.22;5111812;27;20257;-80
2024/03/15 07:22:40;;;;;;;9.93;2.50;;;;;;;-145.69;65.61;52377.06;5113772;27;20196;-80
2024/03/15 07:25:10;;;;;;;7.67;3.60;;;;;;;-145.69;64.88;52357.25;5115120;27;20204;-80
2024/03/15 07:27:37;;;;;;;12.67;2.93;;;;;;;-145.69;63.64;52373.09;5114495;27;20716;-80
2024/03/15 07:30:04;;;;;;;4.65;2.38;;;;;;;-145.69;64.01;52386.97;5109779;27;20290;-80
2024/03/15 07:32:31;;;;;;;9.80;2.80;;;;;;;-145.69;63.07;52323.59;5111776;28;20688;-79
2024/03/15 07:34:58;;;;;;;5.32;2.30;;;;;;;-145.69;61.87;52315.66;5114901;27;20201;-80
2024/03/15 07:37:24;;;;;;;4.57;2.30;;;;;;;-145.69;62.24;52337.44;5116254;27;20226;-80
2024/03/15 07:39:52;;;;;;;4.37;2.17;;;;;;;-145.69;60.54;52353.28;5116019;27;20204;-80
2024/03/15 07:42:21;;;;;;;3.97;2.30;;;;;;;-145.69;59.57;52325.56;5115085;27;20204;-80
2024/03/15 07:44:48;;;;;;;4.82;2.45;;;;;;;-145.69;59.09;52331.50;5115800;27;20197;-81
2024/03/15 07:47:15;;;;;;;3.17;2.03;;;;;;;-145.69;59.16;52305.75;5115463;27;20228;-81
2024/03/15 07:49:42;;;;;;;2.88;1.90;;;;;;;-145.69;58.51;52305.75;5115425;27;20651;-80
2024/03/15 07:52:09;;;;;;;5.70;2.25;;;;;;;-145.69;58.21;52325.56;5114902;27;20300;-80
2024/03/15 07:54:35;;;;;;;5.15;2.05;;;;;;;-145.69;57.14;52341.41;5116023;27;20197;-80
2024/03/15 07:57:02;;;;;;;4.03;1.90;;;;;;;-145.69;56.46;52313.69;5115776;27;20197;-81
2024/03/15 07:59:29;;;;;;;4.22;1.80;;;;;;;-145.69;55.70;52295.84;5115969;27;20207;-81
2024/03/15 08:01:58;;;;;;;5.45;1.80;;;;;;;-145.69;55.01;52282.00;5115439;27;20197;-81
2024/03/15 08:04:25;;;;;;;3.47;1.60;;;;;;;-145.69;54.74;52301.81;5116089;27;20189;-81
2024/03/15 08:06:52;;;;;;;4.57;1.83;;;;;;;-145.69;54.40;52283.97;5111810;28;20223;-80
2024/03/15 08:09:19;;;;;;;5.32;1.75;;;;;;;-145.69;52.69;52278.03;5095320;28;20193;-81
2024/03/15 08:11:46;;;;;;;3.55;1.50;;;;;;;-145.69;51.15;52276.06;5097145;27;20551;-81
2024/03/15 08:14:13;;;;;;;2.67;1.55;;;;;;;-145.69;50.82;52282.00;5114113;28;20197;-81
2024/03/15 08:16:41;;;;;;;5.82;1.88;;;;;;;-145.69;49.60;52303.78;5115168;27;20197;-81
2024/03/15 08:19:08;;;;;;;3.38;1.40;;;;;;;-145.69;48.77;52258.22;5115338;27;20204;-81
2024/03/15 08:21:35;;;;;;;6.55;1.40;;;;;;;-145.69;48.46;52252.28;5115039;27;20295;-81
2024/03/15 08:24:04;;;;;;;2.15;1.35;;;;;;;-145.69;47.60;52278.03;5115356;27;20283;-81
2024/03/15 08:26:31;;;;;;;6.63;1.60;;;;;;;-145.69;47.38;52276.06;5115868;27;20716;-81
2024/03/15 08:28:58;;;;;;;3.65;1.70;;;;;;;-145.69;47.52;52280.00;5114516;27;20720;-81
2024/03/15 08:31:25;;;;;;;4.05;1.30;;;;;;;-145.69;47.14;52282.00;5115222;28;20204;-80
2024/03/15 08:33:52;;;;;;;2.40;1.27;;;;;;;-145.69;47.98;52262.19;5115028;27;20201;-81
2024/03/15 08:36:18;;;;;;;4.82;1.40;;;;;;;-145.69;47.21;52285.97;5115085;28;20234;-82
2024/03/15 08:38:45;;;;;;;6.80;1.60;;;;;;;-145.69;47.79;52299.81;5115329;28;20236;-80
2024/03/15 08:41:12;;;;;;;3.88;1.40;;;;;;;-145.69;47.78;52246.34;5115511;28;20228;-81
2024/03/15 08:43:38;;;;;;;2.72;1.45;;;;;;;-145.69;47.68;52248.34;5115428;28;20291;-81
2024/03/15 08:46:05;;;;;;;3.42;1.67;;;;;;;-145.69;48.86;52226.53;5116734;27;20224;-81
2024/03/15 08:48:32;;;;;;;2.15;1.55;;;;;;;-145.69;48.49;52266.16;5119752;27;20196;-81
2024/03/15 08:50:59;;;;;;;4.57;1.55;;;;;;;-145.69;49.06;52270.13;5119080;27;20236;-81
2024/03/15 08:53:25;;;;;;;3.70;1.40;;;;;;;-145.69;48.23;52226.53;5115321;28;20630;-81
2024/03/15 08:55:53;;;;;;;3.47;1.50;;;;;;;-145.69;47.98;52270.13;5115822;28;20201;-80
2024/03/15 08:58:20;;;;;;;6.43;1.60;;;;;;;-145.69;47.65;52258.22;5115736;28;20648;-80
2024/03/15 09:00:48;;;;;;;3.95;2.00;;;;;;;-145.69;47.58;52258.22;5115634;28;20765;-81
2024/03/15 09:03:15;;;;;;;2.92;1.52;;;;;;;-145.69;47.42;52264.16;5115357;28;20555;-80
2024/03/15 09:05:41;;;;;;;3.22;1.50;;;;;;;-145.69;47.71;52232.50;5118264;27;20196;-80
2024/03/15 09:08:11;;;;;;;4.80;1.63;;;;;;;-145.69;47.53;52289.91;5115103;28;20225;-81
2024/03/15 09:10:37;;;;;;;4.88;1.60;;;;;;;-145.69;46.94;52264.16;5098743;28;20664;-80
2024/03/15 09:13:05;;;;;;;2.63;1.40;;;;;;;-145.69;47.15;52266.16;5098863;28;20207;-80
2024/03/15 09:15:32;;;;;;;2.60;1.50;;;;;;;-145.69;47.08;52250.31;5098226;28;20208;-81
2024/03/15 09:18:00;;;;;;;8.07;2.00;;;;;;;-145.69;47.53;52266.16;5098253;28;20561;-80
2024/03/15 09:20:33;;;;;;;4.68;1.60;;;;;;;-145.69;48.01;52238.44;5097423;28;20439;-80
2024/03/15 09:23:01;;;;;;;4.75;2.00;;;;;;;-145.69;46.94;52228.53;5114988;28;20193;-81
2024/03/15 09:25:29;;;;;;;8.02;2.05;;;;;;;-145.69;47.25;52264.16;5115270;28;20674;-80
2024/03/15 09:27:57;;;;;;;4.05;2.00;;;;;;;-145.69;46.88;52252.28;5115080;28;20695;-80
2024/03/15 09:30:29;;;;;;;4.53;1.48;;;;;;;-145.69;46.44;52234.47;5114863;28;20794;-80
2024/03/15 09:32:56;;;;;;;3.80;1.85;;;;;;;-145.69;46.51;52230.50;5115366;27;20656;-80
2024/03/15 09:35:23;;;;;;;5.65;1.60;;;;;;;-145.69;46.86;52234.47;5120365;27;20614;-82
2024/03/15 09:37:51;;;;;;;3.88;1.60;;;;;;;-145.69;47.16;52246.34;5118230;27;20211;-82
2024/03/15 09:40:18;;;;;;;3.05;1.50;;;;;;;-145.69;46.08;52258.22;5114622;28;20205;-81
2024/03/15 09:42:46;;;;;;;3.85;1.50;;;;;;;-145.69;47.25;52196.84;5117221;27;20193;-81
2024/03/15 09:45:16;;;;;;;5.38;1.77;;;;;;;-145.69;46.24;52248.34;5105415;27;20291;-81
2024/03/15 09:47:42;;;;;;;2.92;1.15;;;;;;;-145.69;46.04;52234.47;5118218;27;20225;-81
2024/03/15 09:50:11;;;;;;;2.97;1.52;;;;;;;-145.69;45.31;52240.41;5117735;27;20225;-81
2024/03/15 09:52:38;;;;;;;6.07;1.48;;;;;;;-145.69;45.11;52218.63;5118536;27;20197;-80
2024/03/15 09:55:10;;;;;;;7.35;1.50;;;;;;;-145.69;45.13;52210.72;5118468;27;20200;-81
2024/03/15 09:57:37;;;;;;;2.25;1.50;;;;;;;-145.69;45.07;52206.75;5118469;27;20196;-82
2024/03/15 10:00:05;;;;;;;3.20;1.80;;;;;;;-145.69;45.00;52165.16;5114399;28;20201;-80
2024/03/15 10:02:32;;;;;;;3.47;1.48;;;;;;;-145.69;44.81;52222.59;5098175;28;20197;-81
2024/03/15 10:05:00;;;;;;;2.85;1.40;;;;;;;-145.69;43.07;52234.47;5114771;27;20520;-81
2024/03/15 10:07:28;;;;;;;4.32;1.50;;;;;;;-145.69;43.54;52234.47;5117325;27;20228;-81
2024/03/15 10:09:55;;;;;;;4.57;1.20;;;;;;;-145.69;43.62;52186.94;5118370;27;20226;-81
2024/03/15 10:12:28;;;;;;;4.80;1.40;;;;;;;-145.69;42.35;52214.66;5117937;27;20204;-81
2024/03/15 10:14:55;;;;;;;2.60;1.35;;;;;;;-145.69;41.43;52204.75;5118165;27;20619;-81
2024/03/15 10:17:21;;;;;;;6.10;1.20;;;;;;;-145.69;41.42;52226.53;5117794;27;20212;-81
2024/03/15 10:19:48;;;;;;;5.28;1.17;;;;;;;-145.69;42.46;52181.00;5117690;27;20288;-81
2024/03/15 10:22:15;;;;;;;2.63;1.23;;;;;;;-145.69;42.34;52194.88;5117611;27;20223;-81
2024/03/15 10:24:42;;;;;;;4.05;1.00;;;;;;;-145.69;41.65;52190.91;5117351;27;20205;-81
2024/03/15 10:27:09;;;;;;;3.78;0.93;;;;;;;-145.69;40.81;52216.66;5117650;27;20315;-81
2024/03/15 10:29:36;;;;;;;3.58;1.30;;;;;;;-145.69;40.98;52194.88;5117588;27;20193;-81
2024/03/15 10:32:03;;;;;;;2.42;1.20;;;;;;;-145.69;41.50;52171.09;5117530;27;20207;-82
2024/03/15 10:34:30;;;;;;;2.90;1.10;;;;;;;-145.69;41.33;52175.06;5121488;27;20185;-84
2024/03/15 10:36:56;;;;;;;4.43;1.08;;;;;;;-145.69;40.49;52169.13;5116843;27;20200;-84
2024/03/15 10:39:23;;;;;;;6.70;1.08;;;;;;;-145.69;40.28;52206.75;5116840;27;20219;-84
2024/03/15 10:41:50;;;;;;;4.13;1.05;;;;;;;-145.69;39.87;52171.09;5117188;27;20207;-83
2024/03/15 10:44:21;;;;;;;2.10;0.93;;;;;;;-145.69;40.40;52173.09;5117210;27;20223;-83
2024/03/15 10:46:47;;;;;;;3.63;1.33;;;;;;;-145.69;41.09;52165.16;5117403;27;20224;-84
2024/03/15 10:49:14;;;;;;;3.63;0.93;;;;;;;-145.69;40.83;52190.91;5117270;27;20678;-83
2024/03/15 10:51:41;;;;;;;2.30;0.90;;;;;;;-145.69;41.01;52196.84;5117077;27;20224;-82
2024/03/15 10:54:08;;;;;;;1.27;0.90;;;;;;;-145.69;40.82;52177.03;5117076;27;20662;-82
2024/03/15 10:56:34;;;;;;;1.38;0.82;;;;;;;-145.69;40.99;52226.53;5116782;27;20189;-83
2024/03/15 10:59:02;;;;;;;1.17;0.95;;;;;;;-145.69;41.25;52206.75;5117009;27;20197;-83
2024/03/15 11:01:28;;;;;;;1.63;0.90;;;;;;;-145.69;41.88;52216.66;5116880;27;20197;-83
2024/03/15 11:03:55;;;;;;;2.17;1.08;;;;;;;-145.69;42.08;52147.34;5119782;27;20200;-81
2024/03/15 11:06:22;;;;;;;1.63;0.85;;;;;;;-145.69;41.87;52220.59;5133038;27;20189;-82
2024/03/15 11:08:48;;;;;;;5.03;1.05;;;;;;;-145.69;41.52;52204.75;5111879;28;20213;-84
2024/03/15 11:11:15;;;;;;;2.80;1.08;;;;;;;-145.69;41.07;52175.06;5096643;28;20205;-83
2024/03/15 11:13:42;;;;;;;3.08;1.00;;;;;;;-145.69;41.84;52149.31;5096069;28;20208;-82
2024/03/15 11:16:18;;;;;;;4.53;0.85;;;;;;;-145.69;41.08;52175.06;5096113;28;20552;-82
2024/03/15 11:18:44;;;;;;;3.72;1.00;;;;;;;-145.69;42.03;52163.19;5113086;28;20201;-83